createdAt,value
2023-04-12T00:00:52.693Z,8.50
2023-04-12T00:03:06.087Z,8.70
2023-04-12T00:05:18.757Z,9.00
2023-04-12T00:07:31.434Z,10.00
2023-04-12T00:09:44.044Z,7.80
2023-04-12T00:12:00.201Z,10.20
2023-04-12T00:14:13.042Z,8.80
2023-04-12T00:16:25.781Z,7.70
2023-04-12T00:18:38.458Z,7.30
2023-04-12T00:20:52.495Z,8.80
2023-04-12T00:23:05.041Z,7.50
2023-04-12T00:25:17.727Z,6.60
2023-04-12T00:27:30.294Z,7.00
2023-04-12T00:29:42.942Z,7.80
2023-04-12T00:31:55.484Z,7.00
2023-04-12T00:34:08.020Z,6.70
2023-04-12T00:36:21.139Z,7.00
2023-04-12T00:38:33.660Z,5.50
2023-04-12T00:40:46.469Z,5.70
2023-04-12T00:42:59.031Z,6.20
2023-04-12T00:45:11.622Z,6.60
2023-04-12T00:47:24.264Z,6.80
2023-04-12T00:49:36.864Z,7.10
2023-04-12T00:51:49.428Z,6.60
2023-04-12T00:54:02.643Z,5.70
2023-04-12T00:56:15.424Z,5.80
2023-04-12T00:58:27.923Z,6.10
2023-04-12T01:00:40.640Z,6.00
2023-04-12T01:02:53.728Z,5.80
2023-04-12T01:05:07.579Z,5.60
2023-04-12T01:07:40.114Z,5.80
2023-04-12T01:10:08.282Z,6.40
2023-04-12T01:12:58.489Z,5.30
2023-04-12T01:15:13.178Z,5.00
2023-04-12T01:17:31.331Z,5.30
2023-04-12T01:19:58.995Z,4.90
2023-04-12T01:22:46.300Z,5.60
2023-04-12T01:25:34.355Z,6.70
2023-04-12T01:27:50.963Z,6.20
2023-04-12T01:30:07.321Z,6.40
2023-04-12T01:32:20.561Z,5.50
2023-04-12T01:34:34.929Z,5.50
2023-04-12T01:36:49.307Z,5.60
2023-04-12T01:39:04.641Z,5.60
2023-04-12T01:41:17.835Z,5.90
2023-04-12T01:43:30.352Z,5.30
2023-04-12T01:45:42.997Z,5.60
2023-04-12T01:47:55.835Z,5.00
2023-04-12T01:50:18.713Z,4.80
2023-04-12T01:52:36.570Z,6.40
2023-04-12T01:54:52.518Z,6.60
2023-04-12T01:57:07.908Z,6.10
2023-04-12T01:59:24.263Z,8.10
2023-04-12T02:01:37.341Z,4.50
2023-04-12T02:03:50.950Z,6.80
2023-04-12T02:06:05.777Z,6.70
2023-04-12T02:08:18.431Z,6.60
2023-04-12T02:10:31.903Z,7.40
2023-04-12T02:12:44.416Z,8.40
2023-04-12T02:14:57.157Z,5.80
2023-04-12T02:17:09.720Z,7.20
2023-04-12T02:19:22.248Z,4.90
2023-04-12T02:21:45.542Z,6.00
2023-04-12T02:23:58.319Z,5.60
2023-04-12T02:26:11.271Z,8.20
2023-04-12T02:28:23.815Z,5.40
2023-04-12T02:30:36.359Z,6.10
2023-04-12T02:32:49.804Z,6.50
2023-04-12T02:35:03.017Z,9.30
2023-04-12T02:37:17.644Z,7.70
2023-04-12T02:39:32.135Z,10.20
2023-04-12T02:41:45.953Z,12.00
2023-04-12T02:43:58.702Z,9.50
2023-04-12T02:46:15.978Z,9.30
2023-04-12T02:48:28.576Z,11.50
2023-04-12T02:50:41.305Z,14.20
2023-04-12T02:52:53.903Z,12.40
2023-04-12T02:55:07.274Z,8.90
2023-04-12T02:57:21.590Z,7.70
2023-04-12T02:59:34.192Z,5.90
2023-04-12T03:01:47.027Z,5.60
2023-04-12T03:04:00.057Z,5.30
2023-04-12T03:06:13.330Z,6.00
2023-04-12T03:08:26.547Z,4.80
2023-04-12T03:10:39.537Z,5.60
2023-04-12T03:12:52.210Z,4.80
2023-04-12T03:15:05.148Z,5.30
2023-04-12T03:17:17.725Z,4.70
2023-04-12T03:19:32.924Z,6.50
2023-04-12T03:21:45.778Z,4.00
2023-04-12T03:23:58.546Z,4.30
2023-04-12T03:26:11.252Z,5.00
2023-04-12T03:28:23.771Z,5.90
2023-04-12T03:30:36.347Z,5.30
2023-04-12T03:32:48.904Z,7.00
2023-04-12T03:35:01.670Z,6.80
2023-04-12T03:37:14.278Z,5.90
2023-04-12T03:39:26.965Z,6.60
2023-04-12T03:41:39.507Z,5.90
2023-04-12T03:43:52.127Z,7.60
2023-04-12T03:46:05.691Z,7.70
2023-04-12T03:48:18.390Z,8.50
2023-04-12T03:50:31.784Z,9.20
2023-04-12T03:52:44.312Z,7.60
2023-04-12T03:54:56.881Z,7.60
2023-04-12T03:57:09.430Z,7.90
2023-04-12T03:59:22.307Z,9.20
2023-04-12T04:01:35.885Z,10.10
2023-04-12T04:03:48.629Z,9.80
2023-04-12T04:06:01.990Z,10.70
2023-04-12T04:08:14.551Z,16.20
2023-04-12T04:10:28.188Z,14.60
2023-04-12T04:12:40.710Z,24.00
2023-04-12T04:14:53.251Z,23.20
2023-04-12T04:17:05.823Z,20.40
2023-04-12T04:19:18.964Z,21.90
2023-04-12T04:21:32.155Z,19.00
2023-04-12T04:23:45.365Z,13.20
2023-04-12T04:25:57.962Z,10.60
2023-04-12T04:28:10.587Z,10.60
2023-04-12T04:30:23.201Z,12.60
2023-04-12T04:32:35.891Z,14.10
2023-04-12T04:34:48.539Z,19.90
2023-04-12T04:37:01.611Z,14.10
2023-04-12T04:39:14.338Z,12.00
2023-04-12T04:41:26.952Z,10.40
2023-04-12T04:43:40.122Z,10.60
2023-04-12T04:45:54.523Z,9.50
2023-04-12T04:48:07.429Z,9.70
2023-04-12T04:50:22.090Z,8.80
2023-04-12T04:52:34.674Z,10.60
2023-04-12T04:54:47.347Z,9.50
2023-04-12T04:56:59.880Z,10.60
2023-04-12T04:59:12.631Z,9.90
2023-04-12T05:01:28.388Z,10.30
2023-04-12T05:03:41.846Z,10.80
2023-04-12T05:05:56.124Z,9.20
2023-04-12T05:08:08.707Z,11.80
2023-04-12T05:10:21.390Z,11.80
2023-04-12T05:12:34.067Z,10.10
2023-04-12T05:14:51.286Z,8.70
2023-04-12T05:17:04.479Z,8.60
2023-04-12T05:19:17.089Z,9.60
2023-04-12T05:21:29.722Z,10.40
2023-04-12T05:23:46.657Z,10.00
2023-04-12T05:25:59.625Z,10.90
2023-04-12T05:28:14.043Z,11.30
2023-04-12T05:30:26.597Z,9.30
2023-04-12T05:32:39.153Z,8.00
2023-04-12T05:34:52.543Z,7.80
2023-04-12T05:37:05.428Z,7.80
2023-04-12T05:39:20.082Z,8.90
2023-04-12T05:41:33.206Z,9.90
2023-04-12T05:43:46.723Z,7.00
2023-04-12T05:45:59.391Z,7.40
2023-04-12T05:48:12.065Z,10.30
2023-04-12T05:50:24.661Z,8.80
2023-04-12T05:52:37.412Z,8.40
2023-04-12T05:54:49.959Z,8.40
2023-04-12T05:57:03.042Z,7.20
2023-04-12T05:59:16.364Z,7.80
2023-04-12T06:01:32.344Z,7.40
2023-04-12T06:03:46.314Z,6.80
2023-04-12T06:05:59.188Z,7.20
2023-04-12T06:08:12.909Z,7.00
2023-04-12T06:10:25.576Z,8.40
2023-04-12T06:12:38.160Z,8.50
2023-04-12T06:14:50.730Z,7.00
2023-04-12T06:17:03.426Z,5.50
2023-04-12T06:19:16.017Z,6.10
2023-04-12T06:21:28.703Z,5.20
2023-04-12T06:23:41.225Z,5.10
2023-04-12T06:25:53.826Z,4.80
2023-04-12T06:28:06.456Z,7.30
2023-04-12T06:30:19.937Z,5.00
2023-04-12T06:32:32.571Z,6.00
2023-04-12T06:34:45.606Z,5.80
2023-04-12T06:36:58.128Z,5.80
2023-04-12T06:39:12.080Z,6.70
2023-04-12T06:41:25.231Z,8.10
2023-04-12T06:43:37.813Z,7.40
2023-04-12T06:45:50.441Z,5.00
2023-04-12T06:48:03.001Z,7.40
2023-04-12T06:50:15.832Z,6.60
2023-04-12T06:52:28.638Z,4.90
2023-04-12T06:54:41.864Z,4.40
2023-04-12T06:56:54.342Z,5.50
2023-04-12T06:59:06.880Z,6.70
2023-04-12T07:01:19.964Z,5.90
2023-04-12T07:03:33.701Z,5.70
2023-04-12T07:05:47.579Z,5.10
2023-04-12T07:08:00.820Z,5.70
2023-04-12T07:10:14.023Z,5.90
2023-04-12T07:12:27.164Z,5.20
2023-04-12T07:14:42.002Z,4.50
2023-04-12T07:16:56.587Z,6.60
2023-04-12T07:19:09.616Z,5.00
2023-04-12T07:21:22.619Z,5.40
2023-04-12T07:23:35.503Z,5.50
2023-04-12T07:25:48.145Z,6.50
2023-04-12T07:28:00.693Z,7.30
2023-04-12T07:30:13.495Z,8.70
2023-04-12T07:32:26.716Z,4.90
2023-04-12T07:34:39.497Z,4.10
2023-04-12T07:36:52.041Z,4.80
2023-04-12T07:39:05.226Z,5.30
2023-04-12T07:41:19.296Z,7.20
2023-04-12T07:43:31.895Z,4.30
2023-04-12T07:45:44.440Z,5.00
2023-04-12T07:47:57.327Z,6.20
2023-04-12T07:50:12.110Z,4.60
2023-04-12T07:52:26.012Z,6.10
2023-04-12T07:54:38.584Z,4.30
2023-04-12T07:56:59.427Z,3.30
2023-04-12T07:59:11.935Z,4.60
2023-04-12T08:01:24.471Z,4.00
2023-04-12T08:03:38.066Z,5.60
2023-04-12T08:05:53.531Z,4.30
2023-04-12T08:08:06.618Z,4.40
2023-04-12T08:10:19.151Z,4.50
2023-04-12T08:12:31.691Z,6.40
2023-04-12T08:14:44.771Z,4.70
2023-04-12T08:16:57.338Z,3.30
2023-04-12T08:19:10.143Z,3.80
2023-04-12T08:21:23.227Z,4.70
2023-04-12T08:23:36.095Z,5.90
2023-04-12T08:25:48.677Z,5.60
2023-04-12T08:28:01.280Z,5.40
2023-04-12T08:30:13.903Z,5.00
2023-04-12T08:32:26.497Z,4.80
2023-04-12T08:34:39.128Z,5.80
2023-04-12T08:36:52.032Z,5.20
2023-04-12T08:39:04.599Z,4.50
2023-04-12T08:41:17.378Z,4.30
2023-04-12T08:43:29.893Z,3.30
2023-04-12T08:45:42.542Z,3.60
2023-04-12T08:47:55.248Z,3.90
2023-04-12T08:50:09.774Z,3.50
2023-04-12T08:52:22.402Z,3.60
2023-04-12T08:54:35.876Z,4.50
2023-04-12T08:56:48.678Z,4.80
2023-04-12T08:59:02.140Z,5.50
2023-04-12T09:01:16.210Z,4.00
2023-04-12T09:03:31.974Z,5.60
2023-04-12T09:05:46.179Z,3.80
2023-04-12T09:07:58.840Z,3.90
2023-04-12T09:10:31.029Z,3.30
2023-04-12T09:12:47.366Z,4.30
2023-04-12T09:15:09.056Z,4.40
2023-04-12T09:17:23.592Z,3.80
2023-04-12T09:19:36.502Z,3.50
2023-04-12T09:21:54.697Z,4.40
2023-04-12T09:24:14.578Z,4.60
2023-04-12T09:26:28.830Z,5.20
2023-04-12T09:28:44.513Z,4.50
2023-04-12T09:30:58.804Z,5.50
2023-04-12T09:33:13.045Z,5.40
2023-04-12T09:35:35.552Z,3.50
2023-04-12T09:37:57.935Z,4.50
2023-04-12T09:40:11.019Z,4.60
2023-04-12T09:42:33.401Z,4.40
2023-04-12T09:44:46.857Z,3.20
2023-04-12T09:47:00.921Z,3.90
2023-04-12T09:49:14.348Z,3.60
2023-04-12T09:51:32.762Z,4.20
2023-04-12T09:53:48.464Z,3.30
2023-04-12T09:56:03.446Z,4.70
2023-04-12T09:58:19.267Z,5.20
2023-04-12T10:00:34.328Z,9.00
2023-04-12T10:02:52.774Z,3.40
2023-04-12T10:05:06.365Z,5.30
2023-04-12T10:07:19.473Z,4.60
2023-04-12T10:09:33.468Z,4.30
2023-04-12T10:11:47.395Z,3.10
2023-04-12T10:14:02.441Z,2.80
2023-04-12T10:16:16.637Z,2.80
2023-04-12T10:18:30.309Z,3.20
2023-04-12T10:20:42.948Z,2.60
2023-04-12T10:22:56.351Z,3.80
2023-04-12T10:25:13.975Z,4.90
2023-04-12T10:27:27.461Z,3.20
2023-04-12T10:29:41.695Z,3.20
2023-04-12T10:31:59.225Z,3.70
2023-04-12T10:34:11.787Z,3.50
2023-04-12T10:36:56.606Z,3.70
2023-04-12T10:39:10.996Z,3.70
2023-04-12T10:41:24.833Z,3.50
2023-04-12T10:43:37.815Z,4.10
2023-04-12T10:45:50.934Z,3.40
2023-04-12T10:48:04.555Z,3.40
2023-04-12T10:50:24.980Z,3.80
2023-04-12T10:52:39.195Z,3.60
2023-04-12T10:54:52.031Z,3.80
2023-04-12T10:57:05.561Z,3.80
2023-04-12T10:59:18.844Z,2.60
2023-04-12T11:01:31.985Z,3.50
2023-04-12T11:04:13.304Z,3.20
2023-04-12T11:06:48.447Z,3.00
2023-04-12T11:09:01.803Z,3.40
2023-04-12T11:11:23.356Z,3.20
2023-04-12T11:13:36.724Z,3.10
2023-04-12T11:15:54.922Z,2.30
2023-04-12T11:18:07.931Z,2.20
2023-04-12T11:20:20.707Z,2.20
2023-04-12T11:22:33.678Z,2.70
2023-04-12T11:24:50.457Z,3.30
2023-04-12T11:27:04.232Z,3.50
2023-04-12T11:29:26.430Z,2.60
2023-04-12T11:31:39.262Z,2.90
2023-04-12T11:33:51.931Z,2.60
2023-04-12T11:36:10.049Z,3.10
2023-04-12T11:38:22.712Z,2.40
2023-04-12T11:40:35.434Z,2.30
2023-04-12T11:42:48.093Z,4.30
2023-04-12T11:45:05.547Z,2.60
2023-04-12T11:47:25.182Z,4.10
2023-04-12T11:49:43.923Z,3.60
2023-04-12T11:52:04.601Z,2.60
2023-04-12T11:54:17.139Z,2.40
2023-04-12T11:56:30.049Z,3.20
2023-04-12T11:58:42.569Z,1.80
2023-04-12T12:00:57.139Z,2.30
2023-04-12T12:03:10.449Z,3.90
2023-04-12T12:05:24.233Z,2.10
2023-04-12T12:07:37.513Z,3.70
2023-04-12T12:09:50.502Z,2.30
2023-04-12T12:12:03.221Z,3.00
2023-04-12T12:14:20.325Z,2.90
2023-04-12T12:16:32.966Z,2.50
2023-04-12T12:18:51.052Z,2.60
2023-04-12T12:21:09.216Z,3.00
2023-04-12T12:23:32.686Z,2.90
2023-04-12T12:25:47.091Z,2.60
2023-04-12T12:28:00.015Z,4.40
2023-04-12T12:30:13.049Z,2.50
2023-04-12T12:32:25.746Z,2.50
2023-04-12T12:34:38.408Z,2.40
2023-04-12T12:36:56.683Z,3.70
2023-04-12T12:39:11.543Z,4.60
2023-04-12T12:41:24.989Z,3.50
2023-04-12T12:43:37.564Z,2.70
2023-04-12T12:45:50.120Z,2.30
2023-04-12T12:48:04.639Z,2.90
2023-04-12T12:50:25.384Z,2.80
2023-04-12T12:52:37.926Z,2.60
2023-04-12T12:54:50.415Z,2.30
2023-04-12T12:57:03.524Z,2.80
2023-04-12T12:59:16.183Z,3.50
2023-04-12T13:01:28.858Z,1.90
2023-04-12T13:03:41.561Z,3.50
2023-04-12T13:05:55.687Z,2.50
2023-04-12T13:08:08.219Z,4.40
2023-04-12T13:10:20.936Z,4.00
2023-04-12T13:12:33.494Z,2.20
2023-04-12T13:14:46.040Z,2.60
2023-04-12T13:16:58.748Z,2.60
2023-04-12T13:19:11.320Z,2.30
2023-04-12T13:21:23.860Z,2.20
2023-04-12T13:23:36.451Z,2.90
2023-04-12T13:25:48.997Z,2.00
2023-04-12T13:28:01.485Z,2.10
2023-04-12T13:30:14.100Z,2.20
2023-04-12T13:32:27.338Z,2.20
2023-04-12T13:34:40.044Z,2.80
2023-04-12T13:36:52.663Z,2.70
2023-04-12T13:39:05.755Z,1.90
2023-04-12T13:41:19.069Z,2.80
2023-04-12T13:43:31.860Z,2.70
2023-04-12T13:45:44.897Z,3.60
2023-04-12T13:47:57.614Z,3.50
2023-04-12T13:50:10.664Z,2.50
2023-04-12T13:52:23.384Z,2.10
2023-04-12T13:54:36.276Z,3.00
2023-04-12T13:56:48.838Z,2.00
2023-04-12T13:59:02.355Z,3.00
2023-04-12T14:01:14.939Z,2.50
2023-04-12T14:03:27.623Z,2.50
2023-04-12T14:05:40.224Z,2.80
2023-04-12T14:07:52.821Z,2.80
2023-04-12T14:10:06.097Z,2.70
2023-04-12T14:12:18.680Z,2.60
2023-04-12T14:14:31.249Z,3.20
2023-04-12T14:16:44.739Z,2.30
2023-04-12T14:18:57.590Z,3.00
2023-04-12T14:21:10.670Z,3.30
2023-04-12T14:23:25.127Z,3.30
2023-04-12T14:25:39.292Z,3.40
2023-04-12T14:27:51.964Z,2.30
2023-04-12T14:30:06.291Z,2.20
2023-04-12T14:32:18.857Z,2.80
2023-04-12T14:34:31.449Z,4.40
2023-04-12T14:36:43.984Z,3.20
2023-04-12T14:38:56.700Z,3.40
2023-04-12T14:41:09.842Z,3.40
2023-04-12T14:43:22.358Z,3.60
2023-04-12T14:45:37.209Z,2.30
2023-04-12T14:47:49.747Z,3.00
2023-04-12T14:50:03.573Z,4.90
2023-04-12T14:52:16.457Z,2.10
2023-04-12T14:54:28.999Z,3.20
2023-04-12T14:56:48.596Z,2.10
2023-04-12T14:59:04.246Z,2.40
2023-04-12T15:01:18.222Z,2.40
2023-04-12T15:03:33.276Z,3.30
2023-04-12T15:05:46.786Z,3.80
2023-04-12T15:07:59.395Z,3.20
2023-04-12T15:10:14.129Z,3.30
2023-04-12T15:12:30.230Z,2.40
2023-04-12T15:14:42.903Z,3.60
2023-04-12T15:16:55.731Z,3.40
2023-04-12T15:19:15.364Z,2.50
2023-04-12T15:21:28.884Z,3.30
2023-04-12T15:23:41.887Z,2.80
2023-04-12T15:26:00.951Z,2.40
2023-04-12T15:28:13.610Z,3.20
2023-04-12T15:30:26.369Z,4.00
2023-04-12T15:32:42.401Z,4.60
2023-04-12T15:35:01.310Z,2.90
2023-04-12T15:37:15.859Z,3.30
2023-04-12T15:39:28.482Z,4.20
2023-04-12T15:41:42.609Z,3.00
2023-04-12T15:43:55.284Z,4.10
2023-04-12T15:46:07.947Z,4.00
2023-04-12T15:48:22.224Z,3.30
2023-04-12T15:50:34.887Z,4.50
2023-04-12T15:52:48.181Z,2.80
2023-04-12T15:55:00.846Z,3.90
2023-04-12T15:57:13.536Z,3.30
2023-04-12T15:59:27.851Z,3.50
2023-04-12T16:01:41.611Z,4.10
2023-04-12T16:03:55.593Z,2.70
2023-04-12T16:06:08.648Z,3.80
2023-04-12T16:08:22.003Z,2.40
2023-04-12T16:10:35.313Z,5.00
2023-04-12T16:12:49.500Z,4.30
2023-04-12T16:15:02.426Z,2.40
2023-04-12T16:17:14.933Z,4.00
2023-04-12T16:19:27.474Z,3.20
2023-04-12T16:21:43.997Z,4.60
2023-04-12T16:23:57.207Z,3.50
2023-04-12T16:26:10.666Z,5.00
2023-04-12T16:28:23.246Z,2.90
2023-04-12T16:30:36.636Z,4.00
2023-04-12T16:32:50.600Z,5.20
2023-04-12T16:35:03.775Z,3.30
2023-04-12T16:37:16.647Z,4.10
2023-04-12T16:39:29.316Z,2.70
2023-04-12T16:41:42.127Z,3.00
2023-04-12T16:43:57.446Z,3.40
2023-04-12T16:46:10.535Z,3.90
2023-04-12T16:48:23.156Z,3.90
2023-04-12T16:50:35.902Z,4.10
2023-04-12T16:52:48.525Z,2.90
2023-04-12T16:55:01.975Z,5.70
2023-04-12T16:57:15.457Z,4.50
2023-04-12T16:59:27.971Z,3.30
2023-04-12T17:01:40.517Z,4.30
2023-04-12T17:03:53.211Z,4.50
2023-04-12T17:06:06.154Z,5.20
2023-04-12T17:08:18.738Z,5.40
2023-04-12T17:10:32.774Z,3.90
2023-04-12T17:12:50.413Z,3.20
2023-04-12T17:15:04.324Z,3.70
2023-04-12T17:17:16.854Z,3.40
2023-04-12T17:19:29.432Z,3.60
2023-04-12T17:21:42.303Z,3.60
2023-04-12T17:23:56.240Z,5.30
2023-04-12T17:26:09.046Z,4.80
2023-04-12T17:28:21.533Z,3.20
2023-04-12T17:30:34.209Z,4.40
2023-04-12T17:32:47.627Z,5.10
2023-04-12T17:35:00.567Z,4.60
2023-04-12T17:37:13.909Z,4.60
2023-04-12T17:39:26.477Z,4.40
2023-04-12T17:41:39.335Z,3.70
2023-04-12T17:43:51.876Z,4.70
2023-04-12T17:46:05.658Z,6.80
2023-04-12T17:48:18.231Z,4.70
2023-04-12T17:50:31.229Z,4.90
2023-04-12T17:52:44.306Z,4.50
2023-04-12T17:54:56.853Z,5.00
2023-04-12T17:57:09.441Z,6.10
2023-04-12T17:59:22.474Z,5.00
2023-04-12T18:01:36.908Z,5.20
2023-04-12T18:03:50.153Z,6.30
2023-04-12T18:06:04.174Z,6.70
2023-04-12T18:08:16.990Z,5.10
2023-04-12T18:10:30.193Z,5.90
2023-04-12T18:12:45.012Z,7.20
2023-04-12T18:14:57.906Z,18.60
2023-04-12T18:17:10.645Z,22.90
2023-04-12T18:19:23.213Z,23.30
2023-04-12T18:21:36.021Z,22.80
2023-04-12T18:23:48.570Z,20.60
2023-04-12T18:26:01.092Z,13.60
2023-04-12T18:28:13.679Z,8.20
2023-04-12T18:30:26.333Z,8.70
2023-04-12T18:32:39.042Z,7.10
2023-04-12T18:34:51.657Z,5.90
2023-04-12T18:37:05.905Z,7.80
2023-04-12T18:39:20.315Z,7.70
2023-04-12T18:41:34.040Z,5.60
2023-04-12T18:43:46.709Z,7.10
2023-04-12T18:45:59.270Z,8.50
2023-04-12T18:48:12.182Z,6.00
2023-04-12T18:50:25.315Z,6.60
2023-04-12T18:52:38.665Z,8.20
2023-04-12T18:54:51.371Z,9.10
2023-04-12T18:57:04.062Z,8.10
2023-04-12T18:59:17.638Z,7.20
2023-04-12T19:01:30.361Z,8.10
2023-04-12T19:03:44.354Z,7.80
2023-04-12T19:05:57.995Z,9.20
2023-04-12T19:08:12.055Z,9.00
2023-04-12T19:10:28.190Z,9.10
2023-04-12T19:12:40.869Z,8.30
2023-04-12T19:14:53.420Z,10.00
2023-04-12T19:17:06.018Z,8.80
2023-04-12T19:19:18.583Z,8.10
2023-04-12T19:21:34.335Z,7.60
2023-04-12T19:23:47.120Z,7.20
2023-04-12T19:26:00.260Z,6.80
2023-04-12T19:28:16.465Z,6.00
2023-04-12T19:30:31.662Z,6.20
2023-04-12T19:32:44.238Z,7.10
2023-04-12T19:34:56.882Z,5.90
2023-04-12T19:37:09.769Z,8.80
2023-04-12T19:39:23.865Z,7.20
2023-04-12T19:41:36.475Z,7.90
2023-04-12T19:43:50.328Z,6.70
2023-04-12T19:46:03.742Z,6.50
2023-04-12T19:48:16.948Z,7.50
2023-04-12T19:50:30.951Z,8.60
2023-04-12T19:52:44.056Z,7.30
2023-04-12T19:54:57.187Z,7.80
2023-04-12T19:57:10.787Z,9.60
2023-04-12T19:59:25.281Z,5.90
2023-04-12T20:01:50.276Z,7.30
2023-04-12T20:04:05.248Z,7.20
2023-04-12T20:06:18.046Z,7.90
2023-04-12T20:08:33.756Z,7.70
2023-04-12T20:10:46.325Z,7.10
2023-04-12T20:12:58.988Z,6.90
2023-04-12T20:15:11.835Z,7.30
2023-04-12T20:17:24.508Z,6.70
2023-04-12T20:19:37.441Z,7.20
2023-04-12T20:21:50.008Z,8.30
2023-04-12T20:24:02.868Z,8.90
2023-04-12T20:26:15.884Z,8.00
2023-04-12T20:28:29.501Z,7.40
2023-04-12T20:30:42.749Z,9.40
2023-04-12T20:32:55.611Z,7.80
2023-04-12T20:35:08.974Z,8.90
2023-04-12T20:37:23.282Z,8.20
2023-04-12T20:39:35.819Z,8.60
2023-04-12T20:41:50.277Z,9.90
2023-04-12T20:44:02.879Z,7.90
2023-04-12T20:46:19.804Z,8.10
2023-04-12T20:48:32.375Z,8.50
2023-04-12T20:50:46.370Z,9.30
2023-04-12T20:52:59.509Z,8.80
2023-04-12T20:55:14.086Z,9.60
2023-04-12T20:57:27.541Z,8.30
2023-04-12T20:59:40.212Z,9.50
2023-04-12T21:01:53.140Z,8.40
2023-04-12T21:04:06.585Z,10.10
2023-04-12T21:06:19.308Z,9.30
2023-04-12T21:08:33.553Z,9.50
2023-04-12T21:10:49.602Z,8.10
2023-04-12T21:13:02.912Z,9.90
2023-04-12T21:15:17.914Z,8.90
2023-04-12T21:17:30.491Z,11.60
2023-04-12T21:19:44.784Z,10.40
2023-04-12T21:22:00.999Z,9.60
2023-04-12T21:24:13.646Z,8.50
2023-04-12T21:26:26.389Z,9.30
2023-04-12T21:28:39.180Z,9.10
2023-04-12T21:30:55.177Z,8.80
2023-04-12T21:33:08.498Z,9.00
2023-04-12T21:35:22.390Z,10.50
2023-04-12T21:37:36.019Z,11.00
2023-04-12T21:39:48.555Z,10.90
2023-04-12T21:42:01.647Z,11.10
2023-04-12T21:44:14.235Z,11.10
2023-04-12T21:46:28.159Z,8.50
2023-04-12T21:48:40.757Z,9.80
2023-04-12T21:50:53.313Z,9.70
2023-04-12T21:53:05.951Z,8.80
2023-04-12T21:55:18.676Z,9.30
2023-04-12T21:57:35.264Z,8.90
2023-04-12T21:59:47.832Z,10.20
2023-04-12T22:02:00.635Z,8.50
2023-04-12T22:04:13.336Z,9.80
2023-04-12T22:06:25.989Z,9.30
2023-04-12T22:08:42.653Z,10.80
2023-04-12T22:10:55.198Z,8.10
2023-04-12T22:13:10.206Z,9.60
2023-04-12T22:15:22.897Z,10.50
2023-04-12T22:17:35.572Z,9.30
2023-04-12T22:19:48.484Z,10.70
2023-04-12T22:22:02.593Z,9.50
2023-04-12T22:24:16.171Z,10.50
2023-04-12T22:26:28.787Z,9.70
2023-04-12T22:28:42.557Z,11.00
2023-04-12T22:30:57.082Z,12.10
2023-04-12T22:33:09.837Z,8.80
2023-04-12T22:35:24.975Z,8.80
2023-04-12T22:37:43.588Z,9.50
2023-04-12T22:39:56.127Z,10.00
2023-04-12T22:42:08.697Z,12.20
2023-04-12T22:44:22.253Z,9.50
2023-04-12T22:46:38.768Z,9.80
2023-04-12T22:48:51.940Z,11.60
2023-04-12T22:51:04.831Z,10.00
2023-04-12T22:53:17.376Z,11.40
2023-04-12T22:55:29.915Z,10.30
2023-04-12T22:57:42.595Z,11.40
2023-04-12T22:59:55.138Z,10.00
2023-04-12T23:02:09.485Z,11.20
2023-04-12T23:04:22.842Z,9.90
2023-04-12T23:06:39.760Z,9.70
2023-04-12T23:08:52.405Z,9.50
2023-04-12T23:11:05.288Z,10.00
2023-04-12T23:13:17.963Z,9.80
2023-04-12T23:15:34.131Z,9.90
2023-04-12T23:17:49.788Z,9.00
2023-04-12T23:20:05.411Z,11.00
2023-04-12T23:22:44.357Z,9.20
2023-04-12T23:25:05.882Z,11.20
2023-04-12T23:27:18.670Z,10.40
2023-04-12T23:29:31.198Z,10.00
2023-04-12T23:31:45.258Z,9.70
2023-04-12T23:34:02.427Z,9.50
2023-04-12T23:36:15.250Z,9.80
2023-04-12T23:38:32.004Z,9.20
2023-04-12T23:40:44.964Z,10.70
2023-04-12T23:42:57.570Z,9.50
2023-04-12T23:45:10.792Z,11.70
2023-04-12T23:47:23.363Z,11.30
2023-04-12T23:49:35.890Z,12.10
2023-04-12T23:51:48.516Z,9.30
2023-04-12T23:54:01.235Z,11.00
2023-04-12T23:56:13.801Z,10.20
2023-04-12T23:58:26.762Z,9.70
